Time;durP1;ratioP1;P1;durP2;ratioP2;P2;SDS_P1;SDS_P2;PMS_P1;PMS_P2;Temp;Humidity;BMP_temperature;BMP_pressure;BME280_temperature;BME280_humidity;BME280_pressure;Samples;Min_cycle;Max_cycle;Signal;HPM_P1;HPM_P2
2022/11/09 00:04:07;;;;;;;13.57;6.20;;;;;;;;;;10365556;28;20088;-57
2022/11/09 00:09:08;;;;;;;9.90;5.65;;;;;;;;;;10362490;28;20496;-62
2022/11/09 00:14:15;;;;;;;9.68;5.78;;;;;;;;;;10365519;28;20412;-60
2022/11/09 00:19:16;;;;;;;10.10;5.30;;;;;;;;;;10365483;28;20072;-61
2022/11/09 00:24:16;;;;;;;11.90;5.50;;;;;;;;;;10369390;28;20034;-59
2022/11/09 00:29:16;;;;;;;9.50;5.60;;;;;;;;;;10373596;28;20033;-61
2022/11/09 00:34:17;;;;;;;9.00;5.10;;;;;;;;;;10372916;28;20053;-58
2022/11/09 00:39:17;;;;;;;8.65;5.25;;;;;;;;;;10350063;28;20100;-61
2022/11/09 00:44:17;;;;;;;11.60;5.93;;;;;;;;;;10373954;28;20026;-55
2022/11/09 00:49:17;;;;;;;6.72;5.07;;;;;;;;;;10365846;28;20496;-57
2022/11/09 00:54:18;;;;;;;9.98;5.45;;;;;;;;;;10371634;28;20377;-60
2022/11/09 00:59:18;;;;;;;10.00;5.28;;;;;;;;;;10370018;28;20034;-60
2022/11/09 01:04:18;;;;;;;7.53;4.90;;;;;;;;;;10372398;28;20034;-59
2022/11/09 01:09:19;;;;;;;9.47;5.33;;;;;;;;;;10355348;28;20030;-61
2022/11/09 01:14:19;;;;;;;9.05;5.07;;;;;;;;;;10372613;28;20113;-60
2022/11/09 01:19:19;;;;;;;8.27;5.30;;;;;;;;;;10369588;28;20401;-61
2022/11/09 01:24:19;;;;;;;9.75;5.28;;;;;;;;;;10371454;28;20083;-59
2022/11/09 01:29:20;;;;;;;10.13;5.20;;;;;;;;;;10370386;28;20048;-62
2022/11/09 01:34:20;;;;;;;8.87;5.00;;;;;;;;;;10371207;28;20425;-59
2022/11/09 01:39:21;;;;;;;10.27;5.28;;;;;;;;;;10371540;28;20091;-60
2022/11/09 01:44:21;;;;;;;7.35;4.72;;;;;;;;;;10371250;28;20477;-63
2022/11/09 01:49:36;;;;;;;8.25;4.68;;;;;;;;;;10371179;28;20080;-59
2022/11/09 01:54:39;;;;;;;7.82;5.40;;;;;;;;;;10359502;28;20494;-62
2022/11/09 01:59:42;;;;;;;7.65;4.60;;;;;;;;;;10366821;28;20030;-60
2022/11/09 02:04:51;;;;;;;8.15;4.68;;;;;;;;;;10367788;28;20477;-62
2022/11/09 02:09:57;;;;;;;7.15;4.68;;;;;;;;;;10362907;28;20042;-57
2022/11/09 02:14:59;;;;;;;5.43;4.38;;;;;;;;;;10363640;28;20030;-60
2022/11/09 02:19:59;;;;;;;7.13;4.45;;;;;;;;;;10367653;28;20034;-62
2022/11/09 02:24:59;;;;;;;6.05;4.57;;;;;;;;;;10367276;28;20029;-61
2022/11/09 02:30:00;;;;;;;6.35;4.13;;;;;;;;;;10367044;28;20073;-62
2022/11/09 02:35:00;;;;;;;6.35;4.38;;;;;;;;;;10366995;28;20038;-62
2022/11/09 02:40:03;;;;;;;6.73;4.57;;;;;;;;;;10369182;28;20109;-61
2022/11/09 02:45:03;;;;;;;5.82;4.40;;;;;;;;;;10368921;28;20049;-62
2022/11/09 02:50:04;;;;;;;8.98;4.65;;;;;;;;;;10368427;28;20536;-60
2022/11/09 02:55:05;;;;;;;6.65;4.10;;;;;;;;;;10367921;28;20034;-59
2022/11/09 03:00:05;;;;;;;5.97;4.25;;;;;;;;;;10367217;28;20038;-60
2022/11/09 03:05:06;;;;;;;6.07;4.32;;;;;;;;;;10366642;28;20029;-55
2022/11/09 03:10:06;;;;;;;10.25;4.20;;;;;;;;;;10356580;28;20029;-54
2022/11/09 03:15:07;;;;;;;8.55;4.13;;;;;;;;;;10366099;28;20026;-54
2022/11/09 03:20:08;;;;;;;6.30;4.35;;;;;;;;;;10366685;28;20030;-60
2022/11/09 03:25:08;;;;;;;7.57;4.20;;;;;;;;;;10364354;28;20057;-59
2022/11/09 03:30:09;;;;;;;8.53;3.90;;;;;;;;;;10359297;28;20053;-60
2022/11/09 03:35:09;;;;;;;7.78;3.95;;;;;;;;;;10365791;28;20475;-61
2022/11/09 03:40:10;;;;;;;5.80;4.20;;;;;;;;;;10367960;28;20083;-57
2022/11/09 03:45:10;;;;;;;7.63;4.32;;;;;;;;;;10365968;28;20389;-56
2022/11/09 03:50:13;;;;;;;5.47;3.80;;;;;;;;;;10365022;28;20494;-61
2022/11/09 03:55:13;;;;;;;5.28;3.88;;;;;;;;;;10365766;28;20104;-59
2022/11/09 04:00:15;;;;;;;7.40;4.05;;;;;;;;;;10365470;28;20429;-62
2022/11/09 04:05:16;;;;;;;5.57;3.72;;;;;;;;;;10365389;28;20052;-58
2022/11/09 04:10:16;;;;;;;5.43;3.70;;;;;;;;;;10365756;28;20030;-62
2022/11/09 04:15:17;;;;;;;5.68;4.03;;;;;;;;;;10362776;28;20080;-61
2022/11/09 04:20:17;;;;;;;3.90;3.03;;;;;;;;;;10365376;28;20080;-60
2022/11/09 04:25:17;;;;;;;5.10;3.87;;;;;;;;;;10363470;28;20481;-61
2022/11/09 04:30:17;;;;;;;4.33;3.70;;;;;;;;;;10364109;28;20038;-62
2022/11/09 04:35:18;;;;;;;4.95;3.53;;;;;;;;;;10360666;28;20037;-62
2022/11/09 04:40:18;;;;;;;5.80;4.00;;;;;;;;;;10365908;28;20038;-60
2022/11/09 04:45:19;;;;;;;6.10;3.57;;;;;;;;;;10364757;28;20034;-63
2022/11/09 04:50:19;;;;;;;5.53;3.75;;;;;;;;;;10364957;28;20378;-52
2022/11/09 04:55:20;;;;;;;5.90;3.80;;;;;;;;;;10365938;28;20030;-58
2022/11/09 05:00:20;;;;;;;4.00;3.30;;;;;;;;;;10364525;28;20083;-60
2022/11/09 05:05:20;;;;;;;4.90;3.50;;;;;;;;;;10363340;28;20045;-61
2022/11/09 05:10:21;;;;;;;5.20;3.75;;;;;;;;;;10369240;28;20811;-60
2022/11/09 05:15:21;;;;;;;4.35;3.47;;;;;;;;;;10371127;28;20030;-59
2022/11/09 05:20:22;;;;;;;5.32;3.67;;;;;;;;;;10373022;28;20025;-62
2022/11/09 05:25:22;;;;;;;3.60;2.95;;;;;;;;;;10372134;28;20033;-63
2022/11/09 05:30:22;;;;;;;4.88;3.55;;;;;;;;;;10371862;28;20046;-63
2022/11/09 05:35:22;;;;;;;5.35;3.20;;;;;;;;;;10372313;28;20108;-60
2022/11/09 05:40:23;;;;;;;4.55;3.40;;;;;;;;;;10369941;28;21093;-60
2022/11/09 05:45:24;;;;;;;4.60;3.50;;;;;;;;;;10368956;28;20041;-63
2022/11/09 05:50:24;;;;;;;6.45;3.28;;;;;;;;;;10367561;28;20037;-61
2022/11/09 05:55:25;;;;;;;4.75;3.28;;;;;;;;;;10349736;28;20031;-62
2022/11/09 06:00:26;;;;;;;4.93;3.47;;;;;;;;;;10369893;28;20077;-60
2022/11/09 06:05:26;;;;;;;3.53;2.78;;;;;;;;;;10367262;28;20909;-63
2022/11/09 06:10:26;;;;;;;7.93;4.05;;;;;;;;;;10364321;28;20026;-62
2022/11/09 06:15:26;;;;;;;4.95;3.60;;;;;;;;;;10368290;28;20041;-61
2022/11/09 06:20:27;;;;;;;11.37;3.00;;;;;;;;;;10366131;28;20026;-61
2022/11/09 06:25:27;;;;;;;6.22;3.53;;;;;;;;;;10362864;28;20030;-61
2022/11/09 06:30:28;;;;;;;12.60;3.63;;;;;;;;;;10368396;28;20560;-62
2022/11/09 06:35:28;;;;;;;13.27;3.83;;;;;;;;;;10364794;28;20034;-60
2022/11/09 06:40:29;;;;;;;10.93;3.53;;;;;;;;;;10366518;28;20481;-60
2022/11/09 06:45:30;;;;;;;5.72;3.80;;;;;;;;;;10363190;28;20038;-58
2022/11/09 06:50:31;;;;;;;6.18;3.67;;;;;;;;;;10367574;28;20393;-56
2022/11/09 06:55:32;;;;;;;4.72;3.55;;;;;;;;;;10362669;28;20034;-58
2022/11/09 07:00:32;;;;;;;6.60;4.13;;;;;;;;;;10365053;28;20448;-60
2022/11/09 07:05:36;;;;;;;6.82;3.42;;;;;;;;;;10360421;28;20397;-58
2022/11/09 07:10:37;;;;;;;4.88;3.70;;;;;;;;;;10355319;28;20053;-60
2022/11/09 07:15:37;;;;;;;5.30;3.90;;;;;;;;;;10361836;28;20057;-59
2022/11/09 07:20:38;;;;;;;5.30;3.97;;;;;;;;;;10363890;28;20034;-63
2022/11/09 07:25:38;;;;;;;11.52;4.28;;;;;;;;;;10364440;28;20026;-60
2022/11/09 07:30:38;;;;;;;6.10;3.38;;;;;;;;;;10363552;28;20037;-59
2022/11/09 07:35:39;;;;;;;8.95;3.80;;;;;;;;;;10359617;28;20026;-60
2022/11/09 07:40:39;;;;;;;10.47;4.23;;;;;;;;;;10365767;28;20195;-60
2022/11/09 07:45:40;;;;;;;10.15;3.97;;;;;;;;;;10365775;28;20049;-60
2022/11/09 07:50:40;;;;;;;6.65;4.05;;;;;;;;;;10365972;28;20558;-61
2022/11/09 07:55:41;;;;;;;6.10;3.93;;;;;;;;;;10364111;28;20402;-61
2022/11/09 08:00:41;;;;;;;8.60;3.40;;;;;;;;;;10366148;28;20539;-62
2022/11/09 08:05:42;;;;;;;9.82;3.58;;;;;;;;;;10364480;28;20501;-60
2022/11/09 08:10:43;;;;;;;6.72;3.78;;;;;;;;;;10365054;28;20386;-61
2022/11/09 08:15:43;;;;;;;4.50;3.45;;;;;;;;;;10365950;28;20525;-61
2022/11/09 08:20:45;;;;;;;4.25;3.42;;;;;;;;;;10364819;28;20030;-61
2022/11/09 08:25:45;;;;;;;8.05;3.88;;;;;;;;;;10364689;28;20085;-61
2022/11/09 08:30:53;;;;;;;6.72;2.95;;;;;;;;;;10364426;28;20112;-62
2022/11/09 08:35:53;;;;;;;3.45;3.08;;;;;;;;;;10364397;28;20396;-61
2022/11/09 08:40:57;;;;;;;4.63;3.57;;;;;;;;;;10364572;28;20029;-57
2022/11/09 08:45:57;;;;;;;7.07;3.70;;;;;;;;;;10371082;28;20072;-56
2022/11/09 08:50:58;;;;;;;6.45;3.60;;;;;;;;;;10371279;28;20026;-59
2022/11/09 08:55:58;;;;;;;6.53;3.17;;;;;;;;;;10371896;28;20032;-59
2022/11/09 09:00:59;;;;;;;5.40;3.33;;;;;;;;;;10371664;28;20438;-61
2022/11/09 09:06:02;;;;;;;5.70;3.40;;;;;;;;;;10371856;28;20117;-57
2022/11/09 09:11:03;;;;;;;9.80;3.22;;;;;;;;;;10372497;28;20037;-59
2022/11/09 09:16:10;;;;;;;7.43;3.10;;;;;;;;;;10371270;28;20375;-58
2022/11/09 09:21:10;;;;;;;8.55;3.22;;;;;;;;;;10371052;28;20026;-51
2022/11/09 09:26:11;;;;;;;8.00;3.43;;;;;;;;;;10369823;28;20084;-58
2022/11/09 09:31:11;;;;;;;5.97;3.35;;;;;;;;;;10360880;28;20048;-50
2022/11/09 09:36:15;;;;;;;4.50;3.17;;;;;;;;;;10369408;28;20104;-55
2022/11/09 09:41:22;;;;;;;4.13;2.78;;;;;;;;;;10378325;28;20044;-58
2022/11/09 09:46:27;;;;;;;4.20;3.28;;;;;;;;;;10376946;28;20022;-59
2022/11/09 09:51:31;;;;;;;5.65;3.20;;;;;;;;;;10377994;28;20033;-60
2022/11/09 09:56:33;;;;;;;6.03;3.20;;;;;;;;;;10373130;28;20061;-60
2022/11/09 10:01:37;;;;;;;11.30;3.08;;;;;;;;;;10371368;28;20037;-61
2022/11/09 10:06:41;;;;;;;4.10;2.85;;;;;;;;;;10373793;28;20473;-59
2022/11/09 10:11:41;;;;;;;3.22;2.65;;;;;;;;;;10376571;28;20478;-61
2022/11/09 10:16:44;;;;;;;3.15;2.60;;;;;;;;;;10371705;28;20036;-56
2022/11/09 10:21:53;;;;;;;5.45;3.33;;;;;;;;;;10366781;28;20030;-61
2022/11/09 10:26:55;;;;;;;5.03;3.20;;;;;;;;;;10376135;28;20026;-60
2022/11/09 10:32:24;;;;;;;5.22;2.97;;;;;;;;;;10366932;28;20053;-61
2022/11/09 10:37:30;;;;;;;6.10;3.38;;;;;;;;;;10353110;28;20044;-60
2022/11/09 10:42:31;;;;;;;6.63;3.42;;;;;;;;;;10369658;28;20030;-60
2022/11/09 10:47:45;;;;;;;7.28;2.95;;;;;;;;;;10365348;28;20026;-59
2022/11/09 10:52:45;;;;;;;3.83;3.17;;;;;;;;;;10360209;28;20093;-60
2022/11/09 10:57:51;;;;;;;6.22;3.33;;;;;;;;;;10363338;28;20440;-56
2022/11/09 11:02:53;;;;;;;4.13;3.00;;;;;;;;;;10366985;28;20026;-61
2022/11/09 11:07:53;;;;;;;5.85;2.88;;;;;;;;;;10363838;28;20037;-58
2022/11/09 11:13:16;;;;;;;3.95;2.80;;;;;;;;;;10366170;28;20386;-60
2022/11/09 11:18:19;;;;;;;4.70;2.92;;;;;;;;;;10357670;28;20087;-61
2022/11/09 11:23:19;;;;;;;3.00;2.70;;;;;;;;;;10354233;28;20037;-62
2022/11/09 11:28:19;;;;;;;6.20;3.40;;;;;;;;;;10362676;28;20037;-60
2022/11/09 11:33:20;;;;;;;4.25;3.03;;;;;;;;;;10353191;28;20092;-58
2022/11/09 11:38:23;;;;;;;4.32;2.95;;;;;;;;;;10365672;28;20026;-59
2022/11/09 11:43:30;;;;;;;4.38;2.65;;;;;;;;;;10358716;28;20553;-61
2022/11/09 11:48:52;;;;;;;4.72;2.80;;;;;;;;;;10359111;28;20375;-60
2022/11/09 11:54:01;;;;;;;3.88;3.10;;;;;;;;;;10361405;28;20037;-60
2022/11/09 11:59:13;;;;;;;4.80;2.83;;;;;;;;;;10363766;28;20034;-60
2022/11/09 12:04:32;;;;;;;4.63;3.30;;;;;;;;;;10352353;28;20470;-61
2022/11/09 12:09:44;;;;;;;4.22;3.10;;;;;;;;;;10357521;28;20034;-60
2022/11/09 12:14:57;;;;;;;4.43;3.05;;;;;;;;;;10361616;28;20026;-60
2022/11/09 12:19:58;;;;;;;3.88;3.15;;;;;;;;;;10349481;28;20034;-59
2022/11/09 12:24:58;;;;;;;4.65;3.08;;;;;;;;;;10350425;28;20034;-62
2022/11/09 12:30:11;;;;;;;5.32;3.13;;;;;;;;;;10362219;28;20030;-59
2022/11/09 12:35:31;;;;;;;5.00;3.28;;;;;;;;;;10363719;28;20486;-58
2022/11/09 12:40:33;;;;;;;3.83;3.17;;;;;;;;;;10356447;28;20030;-57
2022/11/09 12:45:36;;;;;;;3.03;2.72;;;;;;;;;;10357235;28;20500;-59
2022/11/09 12:50:36;;;;;;;4.53;2.85;;;;;;;;;;10364207;28;20417;-58
2022/11/09 12:55:49;;;;;;;3.55;2.63;;;;;;;;;;10363892;28;20040;-57
2022/11/09 13:00:51;;;;;;;5.93;3.35;;;;;;;;;;10361764;28;20028;-61
2022/11/09 13:06:08;;;;;;;5.50;3.17;;;;;;;;;;10365652;28;20121;-60
2022/11/09 13:11:19;;;;;;;4.22;3.10;;;;;;;;;;10354343;28;20022;-53
2022/11/09 13:16:22;;;;;;;5.13;2.88;;;;;;;;;;10354826;28;20030;-61
2022/11/09 13:21:23;;;;;;;7.20;3.00;;;;;;;;;;10363018;28;20037;-61
2022/11/09 13:26:32;;;;;;;6.57;3.45;;;;;;;;;;10363205;28;20033;-57
2022/11/09 13:31:59;;;;;;;6.07;3.10;;;;;;;;;;10360517;28;20164;-50
2022/11/09 13:37:17;;;;;;;5.47;3.03;;;;;;;;;;10345239;28;20482;-56
2022/11/09 13:42:31;;;;;;;8.30;3.97;;;;;;;;;;10368814;28;20022;-61
2022/11/09 13:47:33;;;;;;;4.57;2.92;;;;;;;;;;10347540;28;20121;-53
2022/11/09 13:52:48;;;;;;;4.90;3.10;;;;;;;;;;10373425;28;20042;-56
2022/11/09 13:57:49;;;;;;;5.35;3.38;;;;;;;;;;10367671;28;20037;-58
2022/11/09 14:02:54;;;;;;;5.25;3.22;;;;;;;;;;10370502;28;20033;-60
2022/11/09 14:07:54;;;;;;;3.78;3.00;;;;;;;;;;10369958;28;20040;-61
2022/11/09 14:13:07;;;;;;;3.75;3.08;;;;;;;;;;10371983;28;20405;-55
2022/11/09 14:18:10;;;;;;;6.70;3.75;;;;;;;;;;10366389;28;20513;-57
2022/11/09 14:23:15;;;;;;;8.38;3.38;;;;;;;;;;10366496;28;20397;-59
2022/11/09 14:28:20;;;;;;;5.43;3.45;;;;;;;;;;10365608;28;20038;-50
2022/11/09 14:33:24;;;;;;;2.90;2.60;;;;;;;;;;10366790;28;20132;-56
2022/11/09 14:38:26;;;;;;;4.32;3.13;;;;;;;;;;10368476;28;20037;-51
2022/11/09 14:43:28;;;;;;;6.90;3.83;;;;;;;;;;10367374;28;20504;-59
2022/11/09 14:48:30;;;;;;;6.35;3.05;;;;;;;;;;10368478;28;20249;-56
2022/11/09 14:53:32;;;;;;;4.50;3.35;;;;;;;;;;10366209;28;20038;-60
2022/11/09 14:58:33;;;;;;;4.55;3.42;;;;;;;;;;10368767;28;20486;-60
2022/11/09 15:03:34;;;;;;;3.80;2.80;;;;;;;;;;10368519;28;20036;-51
2022/11/09 15:08:35;;;;;;;4.93;3.35;;;;;;;;;;10367868;28;20028;-50
2022/11/09 15:13:37;;;;;;;6.50;3.20;;;;;;;;;;10367497;28;20034;-55
2022/11/09 15:18:41;;;;;;;6.38;3.35;;;;;;;;;;10367542;28;20029;-51
2022/11/09 15:23:43;;;;;;;4.95;3.30;;;;;;;;;;10368066;28;20105;-56
2022/11/09 15:28:45;;;;;;;7.75;3.72;;;;;;;;;;10362399;28;20040;-55
2022/11/09 15:33:51;;;;;;;3.92;2.75;;;;;;;;;;10353556;28;20049;-49
2022/11/09 15:38:57;;;;;;;3.42;2.80;;;;;;;;;;10366060;28;20030;-52
2022/11/09 15:43:57;;;;;;;5.38;3.30;;;;;;;;;;10365604;28;20025;-59
2022/11/09 15:49:05;;;;;;;4.00;2.95;;;;;;;;;;10363942;28;20042;-57
2022/11/09 15:54:05;;;;;;;5.38;3.10;;;;;;;;;;10366048;28;20248;-59
2022/11/09 15:59:06;;;;;;;5.10;3.05;;;;;;;;;;10364995;28;20276;-54
2022/11/09 16:04:06;;;;;;;20.88;3.95;;;;;;;;;;10365233;28;20072;-59
2022/11/09 16:09:07;;;;;;;5.55;3.40;;;;;;;;;;10363890;28;20022;-56
2022/11/09 16:14:07;;;;;;;5.80;3.30;;;;;;;;;;10364467;28;20036;-55
2022/11/09 16:19:10;;;;;;;8.88;3.60;;;;;;;;;;10364696;28;20036;-56
2022/11/09 16:24:10;;;;;;;5.10;3.38;;;;;;;;;;10363322;28;20496;-57
2022/11/09 16:29:11;;;;;;;6.72;3.03;;;;;;;;;;10364054;28;20022;-58
2022/11/09 16:34:11;;;;;;;4.32;2.85;;;;;;;;;;10365061;28;20041;-52
2022/11/09 16:39:15;;;;;;;6.40;3.63;;;;;;;;;;10364258;28;20150;-56
2022/11/09 16:44:17;;;;;;;6.72;3.22;;;;;;;;;;10365340;28;20034;-59
2022/11/09 16:49:17;;;;;;;7.05;3.20;;;;;;;;;;10362751;28;20026;-59
2022/11/09 16:54:18;;;;;;;6.43;3.40;;;;;;;;;;10364750;28;20026;-56
2022/11/09 16:59:18;;;;;;;4.15;2.92;;;;;;;;;;10364612;28;20459;-55
2022/11/09 17:04:19;;;;;;;4.83;3.03;;;;;;;;;;10365772;28;20371;-57
2022/11/09 17:09:19;;;;;;;3.15;2.83;;;;;;;;;;10372404;28;20468;-56
2022/11/09 17:14:20;;;;;;;5.55;3.30;;;;;;;;;;10368681;28;20045;-53
2022/11/09 17:19:20;;;;;;;3.87;3.30;;;;;;;;;;10370853;28;20033;-58
2022/11/09 17:24:20;;;;;;;5.05;3.35;;;;;;;;;;10372551;28;20032;-54
2022/11/09 17:29:21;;;;;;;5.18;3.40;;;;;;;;;;10371908;28;20116;-55
2022/11/09 17:34:21;;;;;;;5.78;3.30;;;;;;;;;;10371361;28;20030;-59
2022/11/09 17:39:23;;;;;;;4.05;3.03;;;;;;;;;;10372699;28;20030;-57
2022/11/09 17:44:23;;;;;;;5.63;3.55;;;;;;;;;;10364575;28;20061;-58
2022/11/09 17:49:23;;;;;;;5.28;3.40;;;;;;;;;;10366131;28;20544;-57
2022/11/09 17:54:23;;;;;;;5.82;3.50;;;;;;;;;;10370111;28;20462;-56
2022/11/09 17:59:24;;;;;;;6.13;3.93;;;;;;;;;;10370796;28;20524;-67
2022/11/09 18:04:24;;;;;;;5.22;3.47;;;;;;;;;;10369416;28;20046;-63
2022/11/09 18:09:24;;;;;;;8.30;3.85;;;;;;;;;;10371254;28;20034;-66
2022/11/09 18:14:25;;;;;;;7.38;3.80;;;;;;;;;;10370365;28;20498;-68
2022/11/09 18:19:25;;;;;;;5.82;4.13;;;;;;;;;;10369595;28;20032;-68
2022/11/09 18:24:26;;;;;;;5.80;4.30;;;;;;;;;;10368958;28;20113;-53
2022/11/09 18:29:26;;;;;;;11.60;5.05;;;;;;;;;;10369389;28;20573;-59
2022/11/09 18:34:27;;;;;;;7.95;4.45;;;;;;;;;;10369071;28;20049;-57
2022/11/09 18:39:27;;;;;;;8.80;4.70;;;;;;;;;;10368903;28;20042;-59
2022/11/09 18:44:27;;;;;;;6.90;4.60;;;;;;;;;;10367433;28;20040;-60
2022/11/09 18:49:27;;;;;;;9.25;4.18;;;;;;;;;;10367008;28;20113;-65
2022/11/09 18:54:28;;;;;;;5.88;4.50;;;;;;;;;;10365884;28;20379;-64
2022/11/09 18:59:28;;;;;;;9.13;5.30;;;;;;;;;;10365137;28;20034;-59
2022/11/09 19:04:28;;;;;;;7.07;4.60;;;;;;;;;;10365959;28;20121;-56
2022/11/09 19:09:30;;;;;;;14.40;4.50;;;;;;;;;;10362815;28;20045;-60
2022/11/09 19:14:30;;;;;;;10.68;6.10;;;;;;;;;;10366053;28;20036;-55
2022/11/09 19:19:30;;;;;;;13.02;5.95;;;;;;;;;;10365702;28;20393;-65
2022/11/09 19:24:31;;;;;;;15.40;5.50;;;;;;;;;;10365945;28;20068;-55
2022/11/09 19:29:31;;;;;;;12.53;5.37;;;;;;;;;;10362608;28;20037;-62
2022/11/09 19:34:31;;;;;;;8.57;5.85;;;;;;;;;;10360606;28;20440;-66
2022/11/09 19:39:32;;;;;;;10.40;5.55;;;;;;;;;;10364680;28;20030;-55
2022/11/09 19:44:32;;;;;;;11.93;6.70;;;;;;;;;;10366286;28;20029;-67
2022/11/09 19:49:32;;;;;;;11.27;6.10;;;;;;;;;;10361713;28;20084;-51
2022/11/09 19:54:32;;;;;;;9.32;5.93;;;;;;;;;;10359434;28;20388;-49
2022/11/09 19:59:33;;;;;;;11.10;5.65;;;;;;;;;;10366002;28;20458;-57
2022/11/09 20:04:33;;;;;;;9.27;6.10;;;;;;;;;;10361409;28;20373;-56
2022/11/09 20:09:34;;;;;;;10.65;7.05;;;;;;;;;;10365464;28;20478;-56
2022/11/09 20:14:34;;;;;;;7.40;5.20;;;;;;;;;;10358614;28;20037;-52
2022/11/09 20:19:34;;;;;;;11.13;6.25;;;;;;;;;;10360687;28;20080;-48
2022/11/09 20:24:34;;;;;;;10.45;5.55;;;;;;;;;;10359396;28;20032;-48
2022/11/09 20:29:35;;;;;;;12.93;6.20;;;;;;;;;;10362357;28;20502;-52
2022/11/09 20:34:35;;;;;;;10.35;6.03;;;;;;;;;;10361834;28;20494;-54
2022/11/09 20:39:35;;;;;;;12.27;6.03;;;;;;;;;;10366884;28;20065;-55
2022/11/09 20:44:36;;;;;;;9.02;5.30;;;;;;;;;;10373693;28;20025;-54
2022/11/09 20:49:36;;;;;;;11.55;5.05;;;;;;;;;;10371858;28;20034;-55
2022/11/09 20:54:36;;;;;;;8.73;5.37;;;;;;;;;;10367340;28;20370;-61
2022/11/09 20:59:37;;;;;;;8.87;5.70;;;;;;;;;;10365225;28;20467;-64
2022/11/09 21:04:38;;;;;;;10.85;5.43;;;;;;;;;;10372436;28;20374;-55
2022/11/09 21:09:38;;;;;;;8.70;5.03;;;;;;;;;;10373071;28;20513;-64
2022/11/09 21:14:38;;;;;;;8.77;5.47;;;;;;;;;;10372165;28;20045;-64
2022/11/09 21:19:38;;;;;;;8.18;4.60;;;;;;;;;;10372957;28;20176;-53
2022/11/09 21:29:58;;;;;;;7.47;4.85;;;;;;;;;;10371539;28;20050;-52
2022/11/09 21:34:58;;;;;;;6.37;4.27;;;;;;;;;;10369779;28;20053;-53
2022/11/09 21:39:58;;;;;;;10.70;5.03;;;;;;;;;;10368206;28;20025;-51
2022/11/09 21:44:58;;;;;;;7.63;4.35;;;;;;;;;;10370457;28;20030;-49
2022/11/09 21:49:59;;;;;;;14.32;4.20;;;;;;;;;;10369448;28;20034;-50
2022/11/09 21:54:59;;;;;;;8.00;4.15;;;;;;;;;;10369720;28;20044;-48
2022/11/09 21:59:59;;;;;;;6.25;3.72;;;;;;;;;;10370515;28;20030;-56
2022/11/09 22:04:59;;;;;;;7.70;4.50;;;;;;;;;;10368136;28;20401;-53
2022/11/09 22:10:00;;;;;;;6.80;3.90;;;;;;;;;;10369052;28;20385;-55
2022/11/09 22:25:38;;;;;;;6.90;3.83;;;;;;;;;;10366320;28;20037;-53
2022/11/09 22:30:38;;;;;;;5.82;4.20;;;;;;;;;;10368016;28;20485;-49
2022/11/09 22:35:38;;;;;;;7.68;4.30;;;;;;;;;;10367614;28;20367;-53
2022/11/09 22:40:38;;;;;;;10.93;3.85;;;;;;;;;;10369146;28;20026;-55
2022/11/09 22:45:39;;;;;;;5.60;3.70;;;;;;;;;;10367977;28;20088;-56
2022/11/09 22:50:39;;;;;;;8.10;3.97;;;;;;;;;;10365127;28;20034;-53
2022/11/09 22:55:39;;;;;;;6.53;4.32;;;;;;;;;;10369747;28;20037;-51
2022/11/09 23:00:40;;;;;;;5.60;4.05;;;;;;;;;;10358077;28;20033;-60
2022/11/09 23:05:41;;;;;;;5.05;3.60;;;;;;;;;;10358052;28;20120;-52
2022/11/09 23:10:41;;;;;;;7.07;4.10;;;;;;;;;;10366187;28;20030;-54
2022/11/09 23:15:41;;;;;;;6.38;4.18;;;;;;;;;;10367911;28;20467;-55
2022/11/09 23:20:42;;;;;;;7.18;4.10;;;;;;;;;;10367000;28;20396;-52
2022/11/09 23:25:55;;;;;;;5.63;4.13;;;;;;;;;;10367958;28;20529;-50
2022/11/09 23:31:03;;;;;;;4.90;3.80;;;;;;;;;;10367198;28;20393;-51
2022/11/09 23:36:04;;;;;;;7.40;3.67;;;;;;;;;;10367915;28;20474;-53
2022/11/09 23:41:06;;;;;;;6.32;3.70;;;;;;;;;;10366607;28;20030;-53
2022/11/09 23:46:10;;;;;;;5.55;3.60;;;;;;;;;;10367094;28;20120;-50
2022/11/09 23:51:11;;;;;;;6.40;4.30;;;;;;;;;;10366561;28;20060;-53
2022/11/09 23:56:11;;;;;;;4.55;3.50;;;;;;;;;;10366772;28;20125;-52
